sensor_id;sensor_type;location;lat;lon;timestamp;pressure;altitude;pressure_sealevel;temperature;humidity
73429;BME280;61643;49.564;17.412;2024-03-23T00:52:02;97510.34;;;9.21;100.00
73429;BME280;61643;49.564;17.412;2024-03-23T00:54:28;97508.75;;;9.20;100.00
73429;BME280;61643;49.564;17.412;2024-03-23T00:56:54;97503.94;;;9.22;100.00
73429;BME280;61643;49.564;17.412;2024-03-23T00:59:20;97504.72;;;9.28;100.00
73429;BME280;61643;49.564;17.412;2024-03-23T01:01:47;97492.63;;;9.30;100.00
73429;BME280;61643;49.564;17.412;2024-03-23T01:04:13;97492.66;;;9.40;100.00
73429;BME280;61643;49.564;17.412;2024-03-23T01:06:39;97490.25;;;9.49;100.00
73429;BME280;61643;49.564;17.412;2024-03-23T01:09:05;97489.19;;;9.50;100.00
73429;BME280;61643;49.564;17.412;2024-03-23T01:11:32;97493.75;;;9.50;100.00
73429;BME280;61643;49.564;17.412;2024-03-23T01:13:57;97486.22;;;9.52;100.00
73429;BME280;61643;49.564;17.412;2024-03-23T01:16:23;97484.34;;;9.52;100.00
73429;BME280;61643;49.564;17.412;2024-03-23T01:18:49;97489.19;;;9.55;100.00
73429;BME280;61643;49.564;17.412;2024-03-23T01:21:15;97491.88;;;9.55;100.00
73429;BME280;61643;49.564;17.412;2024-03-23T01:23:41;97491.59;;;9.57;100.00
73429;BME280;61643;49.564;17.412;2024-03-23T01:26:08;97481.41;;;9.54;100.00
73429;BME280;61643;49.564;17.412;2024-03-23T01:28:34;97483.56;;;9.62;100.00
73429;BME280;61643;49.564;17.412;2024-03-23T01:30:59;97473.34;;;9.54;100.00
73429;BME280;61643;49.564;17.412;2024-03-23T01:33:25;97480.31;;;9.60;100.00
73429;BME280;61643;49.564;17.412;2024-03-23T01:35:51;97472.81;;;9.57;100.00
73429;BME280;61643;49.564;17.412;2024-03-23T01:38:17;97472.28;;;9.55;100.00
73429;BME280;61643;49.564;17.412;2024-03-23T01:40:43;97483.03;;;9.55;100.00
73429;BME280;61643;49.564;17.412;2024-03-23T01:43:09;97480.84;;;9.52;100.00
73429;BME280;61643;49.564;17.412;2024-03-23T01:45:35;97480.84;;;9.52;100.00
73429;BME280;61643;49.564;17.412;2024-03-23T01:48:02;97470.09;;;9.42;100.00
73429;BME280;61643;49.564;17.412;2024-03-23T01:50:29;97458.56;;;9.36;100.00
73429;BME280;61643;49.564;17.412;2024-03-23T01:53:02;97463.13;;;9.35;100.00
73429;BME280;61643;49.564;17.412;2024-03-23T01:55:32;97469.28;;;9.41;100.00
73429;BME280;61643;49.564;17.412;2024-03-23T01:57:58;97456.41;;;9.38;100.00
73429;BME280;61643;49.564;17.412;2024-03-23T02:00:24;97444.31;;;9.46;100.00
73429;BME280;61643;49.564;17.412;2024-03-23T02:02:51;97446.47;;;9.44;100.00
73429;BME280;61643;49.564;17.412;2024-03-23T02:05:17;97443.78;;;9.49;100.00
73429;BME280;61643;49.564;17.412;2024-03-23T02:07:43;97444.59;;;9.49;100.00
73429;BME280;61643;49.564;17.412;2024-03-23T02:10:10;97432.25;;;9.43;100.00
73429;BME280;61643;49.564;17.412;2024-03-23T02:12:39;97432.78;;;9.40;100.00
73429;BME280;61643;49.564;17.412;2024-03-23T02:15:05;97426.03;;;9.37;100.00
73429;BME280;61643;49.564;17.412;2024-03-23T02:17:34;97421.75;;;9.42;100.00
73429;BME280;61643;49.564;17.412;2024-03-23T02:20:00;97422.31;;;9.38;100.00
73429;BME280;61643;49.564;17.412;2024-03-23T02:22:39;97408.63;;;9.40;100.00
73429;BME280;61643;49.564;17.412;2024-03-23T02:25:06;97414.22;;;9.49;100.00
73429;BME280;61643;49.564;17.412;2024-03-23T02:27:32;97400.00;;;9.48;100.00
73429;BME280;61643;49.564;17.412;2024-03-23T02:29:59;97397.06;;;9.50;100.00
73429;BME280;61643;49.564;17.412;2024-03-23T02:32:25;97375.56;;;9.55;100.00
73429;BME280;61643;49.564;17.412;2024-03-23T02:34:51;97374.75;;;9.54;100.00
73429;BME280;61643;49.564;17.412;2024-03-23T02:37:17;97377.69;;;9.53;100.00
73429;BME280;61643;49.564;17.412;2024-03-23T02:39:43;97381.19;;;9.48;100.00
73429;BME280;61643;49.564;17.412;2024-03-23T02:42:09;97367.50;;;9.34;100.00
73429;BME280;61643;49.564;17.412;2024-03-23T02:44:35;97383.34;;;9.41;100.00
73429;BME280;61643;49.564;17.412;2024-03-23T02:47:01;97386.06;;;9.36;100.00
73429;BME280;61643;49.564;17.412;2024-03-23T02:49:27;97400.81;;;9.33;100.00
73429;BME280;61643;49.564;17.412;2024-03-23T02:51:53;97383.63;;;9.29;100.00
73429;BME280;61643;49.564;17.412;2024-03-23T02:54:19;97387.41;;;9.28;100.00
73429;BME280;61643;49.564;17.412;2024-03-23T02:56:45;97388.75;;;9.26;100.00
73429;BME280;61643;49.564;17.412;2024-03-23T02:59:11;97380.66;;;9.21;100.00
73429;BME280;61643;49.564;17.412;2024-03-23T03:01:37;97378.25;;;9.14;100.00
73429;BME280;61643;49.564;17.412;2024-03-23T03:04:03;97380.38;;;9.12;100.00
73429;BME280;61643;49.564;17.412;2024-03-23T03:06:31;97376.91;;;9.17;100.00
73429;BME280;61643;49.564;17.412;2024-03-23T03:08:57;97377.16;;;9.15;100.00
73429;BME280;61643;49.564;17.412;2024-03-23T03:11:23;97386.56;;;9.13;100.00
73429;BME280;61643;49.564;17.412;2024-03-23T03:13:49;97386.59;;;9.08;100.00
73429;BME280;61643;49.564;17.412;2024-03-23T03:16:15;97373.41;;;8.96;100.00
73429;BME280;61643;49.564;17.412;2024-03-23T03:18:41;97375.00;;;9.02;100.00
73429;BME280;61643;49.564;17.412;2024-03-23T03:21:07;97361.31;;;9.09;100.00
73429;BME280;61643;49.564;17.412;2024-03-23T03:23:39;97324.56;;;9.04;100.00
73429;BME280;61643;49.564;17.412;2024-03-23T03:26:06;97339.31;;;9.17;100.00
73429;BME280;61643;49.564;17.412;2024-03-23T03:28:32;97357.84;;;9.23;100.00
73429;BME280;61643;49.564;17.412;2024-03-23T03:31:01;97345.50;;;9.17;100.00
73429;BME280;61643;49.564;17.412;2024-03-23T03:33:28;97353.56;;;9.22;100.00
73429;BME280;61643;49.564;17.412;2024-03-23T03:35:54;97348.97;;;9.23;100.00
73429;BME280;61643;49.564;17.412;2024-03-23T03:38:21;97345.25;;;9.29;100.00
73429;BME280;61643;49.564;17.412;2024-03-23T03:40:47;97339.03;;;9.33;100.00
73429;BME280;61643;49.564;17.412;2024-03-23T03:43:13;97336.38;;;9.28;100.00
73429;BME280;61643;49.564;17.412;2024-03-23T03:45:40;97334.22;;;9.25;100.00
73429;BME280;61643;49.564;17.412;2024-03-23T03:48:06;97333.16;;;9.16;100.00
73429;BME280;61643;49.564;17.412;2024-03-23T03:50:33;97329.69;;;9.01;100.00
73429;BME280;61643;49.564;17.412;2024-03-23T03:52:59;97322.66;;;8.95;100.00
73429;BME280;61643;49.564;17.412;2024-03-23T03:55:25;97308.19;;;8.85;100.00
73429;BME280;61643;49.564;17.412;2024-03-23T03:57:51;97298.78;;;8.88;100.00
73429;BME280;61643;49.564;17.412;2024-03-23T04:00:17;97299.06;;;8.97;100.00
73429;BME280;61643;49.564;17.412;2024-03-23T04:02:43;97291.03;;;8.97;100.00
73429;BME280;61643;49.564;17.412;2024-03-23T04:05:09;97303.09;;;9.04;100.00
73429;BME280;61643;49.564;17.412;2024-03-23T04:07:35;97310.06;;;9.05;100.00
73429;BME280;61643;49.564;17.412;2024-03-23T04:10:01;97301.47;;;8.98;100.00
73429;BME280;61643;49.564;17.412;2024-03-23T04:12:27;97303.91;;;9.00;100.00
73429;BME280;61643;49.564;17.412;2024-03-23T04:14:52;97301.19;;;8.95;100.00
73429;BME280;61643;49.564;17.412;2024-03-23T04:17:19;97308.47;;;8.99;100.00
73429;BME280;61643;49.564;17.412;2024-03-23T04:19:45;97295.03;;;8.94;100.00
73429;BME280;61643;49.564;17.412;2024-03-23T04:22:11;97291.28;;;9.00;100.00
73429;BME280;61643;49.564;17.412;2024-03-23T04:24:37;97294.78;;;9.01;100.00
73429;BME280;61643;49.564;17.412;2024-03-23T04:27:03;97305.78;;;9.04;100.00
73429;BME280;61643;49.564;17.412;2024-03-23T04:29:29;97293.69;;;9.02;100.00
73429;BME280;61643;49.564;17.412;2024-03-23T04:31:55;97288.59;;;9.05;100.00
73429;BME280;61643;49.564;17.412;2024-03-23T04:34:21;97288.03;;;9.08;100.00
73429;BME280;61643;49.564;17.412;2024-03-23T04:36:48;97291.00;;;9.12;100.00
73429;BME280;61643;49.564;17.412;2024-03-23T04:39:14;97289.94;;;9.18;100.00
73429;BME280;61643;49.564;17.412;2024-03-23T04:41:40;97279.44;;;9.16;100.00
73429;BME280;61643;49.564;17.412;2024-03-23T04:44:06;97293.44;;;9.18;100.00
73429;BME280;61643;49.564;17.412;2024-03-23T04:46:33;97284.31;;;9.14;100.00
73429;BME280;61643;49.564;17.412;2024-03-23T04:48:59;97283.19;;;9.15;100.00
73429;BME280;61643;49.564;17.412;2024-03-23T04:51:25;97278.91;;;9.19;100.00
73429;BME280;61643;49.564;17.412;2024-03-23T04:53:51;97278.91;;;9.19;100.00
73429;BME280;61643;49.564;17.412;2024-03-23T04:56:18;97273.28;;;9.26;100.00
73429;BME280;61643;49.564;17.412;2024-03-23T04:58:44;97266.56;;;9.23;100.00
73429;BME280;61643;49.564;17.412;2024-03-23T05:01:13;97270.88;;;9.29;100.00
73429;BME280;61643;49.564;17.412;2024-03-23T05:03:39;97263.88;;;9.28;100.00
73429;BME280;61643;49.564;17.412;2024-03-23T05:06:05;97259.03;;;9.30;100.00
73429;BME280;61643;49.564;17.412;2024-03-23T05:08:31;97259.31;;;9.24;100.00
73429;BME280;61643;49.564;17.412;2024-03-23T05:10:57;97258.78;;;9.22;100.00
73429;BME280;61643;49.564;17.412;2024-03-23T05:13:23;97241.59;;;9.13;100.00
73429;BME280;61643;49.564;17.412;2024-03-23T05:15:53;97266.84;;;9.22;100.00
73429;BME280;61643;49.564;17.412;2024-03-23T05:18:20;97254.22;;;9.12;100.00
73429;BME280;61643;49.564;17.412;2024-03-23T05:20:47;97259.59;;;9.17;100.00
73429;BME280;61643;49.564;17.412;2024-03-23T05:23:13;97255.56;;;9.20;100.00
73429;BME280;61643;49.564;17.412;2024-03-23T05:25:38;97250.72;;;9.17;100.00
73429;BME280;61643;49.564;17.412;2024-03-23T05:28:05;97260.13;;;9.24;100.00
73429;BME280;61643;49.564;17.412;2024-03-23T05:30:31;97266.84;;;9.22;100.00
73429;BME280;61643;49.564;17.412;2024-03-23T05:32:57;97260.13;;;9.24;100.00
73429;BME280;61643;49.564;17.412;2024-03-23T05:35:23;97251.78;;;9.31;100.00
73429;BME280;61643;49.564;17.412;2024-03-23T05:37:49;97244.53;;;9.26;100.00
73429;BME280;61643;49.564;17.412;2024-03-23T05:40:15;97245.06;;;9.33;100.00
73429;BME280;61643;49.564;17.412;2024-03-23T05:42:41;97232.19;;;9.25;100.00
73429;BME280;61643;49.564;17.412;2024-03-23T05:45:07;97245.34;;;9.32;100.00
73429;BME280;61643;49.564;17.412;2024-03-23T05:47:33;97252.59;;;9.36;100.00
73429;BME280;61643;49.564;17.412;2024-03-23T05:49:59;97255.25;;;9.42;100.00
73429;BME280;61643;49.564;17.412;2024-03-23T05:52:27;97239.69;;;9.38;100.00
73429;BME280;61643;49.564;17.412;2024-03-23T05:54:53;97241.25;;;9.50;100.00
73429;BME280;61643;49.564;17.412;2024-03-23T05:57:19;97236.97;;;9.49;100.00
73429;BME280;61643;49.564;17.412;2024-03-23T05:59:46;97227.03;;;9.49;100.00
73429;BME280;61643;49.564;17.412;2024-03-23T06:02:12;97225.44;;;9.43;100.00
73429;BME280;61643;49.564;17.412;2024-03-23T06:04:37;97242.06;;;9.50;100.00
73429;BME280;61643;49.564;17.412;2024-03-23T06:07:04;97233.47;;;9.48;100.00
73429;BME280;61643;49.564;17.412;2024-03-23T06:09:32;97233.22;;;9.50;100.00
73429;BME280;61643;49.564;17.412;2024-03-23T06:11:58;97229.19;;;9.47;100.00
73429;BME280;61643;49.564;17.412;2024-03-23T06:14:24;97221.94;;;9.43;100.00
73429;BME280;61643;49.564;17.412;2024-03-23T06:16:50;97222.97;;;9.52;100.00
73429;BME280;61643;49.564;17.412;2024-03-23T06:19:16;97229.97;;;9.53;100.00
73429;BME280;61643;49.564;17.412;2024-03-23T06:21:45;97218.97;;;9.54;100.00
73429;BME280;61643;49.564;17.412;2024-03-23T06:24:11;97221.66;;;9.54;100.00
73429;BME280;61643;49.564;17.412;2024-03-23T06:26:37;97233.16;;;9.60;100.00
73429;BME280;61643;49.564;17.412;2024-03-23T06:29:03;97227.53;;;9.61;100.00
73429;BME280;61643;49.564;17.412;2024-03-23T06:31:31;97225.63;;;9.67;100.00
73429;BME280;61643;49.564;17.412;2024-03-23T06:33:57;97218.06;;;9.74;100.00
73429;BME280;61643;49.564;17.412;2024-03-23T06:36:23;97213.50;;;9.74;100.00
73429;BME280;61643;49.564;17.412;2024-03-23T06:38:49;97210.81;;;9.79;100.00
73429;BME280;61643;49.564;17.412;2024-03-23T06:41:15;97221.22;;;9.91;100.00
73429;BME280;61643;49.564;17.412;2024-03-23T06:43:41;97218.00;;;9.94;100.00
73429;BME280;61643;49.564;17.412;2024-03-23T06:46:07;97214.25;;;9.90;100.00
73429;BME280;61643;49.564;17.412;2024-03-23T06:48:33;97219.56;;;10.00;100.00
73429;BME280;61643;49.564;17.412;2024-03-23T06:50:59;97210.38;;;10.06;100.00
73429;BME280;61643;49.564;17.412;2024-03-23T06:53:25;97216.25;;;10.18;100.00
73429;BME280;61643;49.564;17.412;2024-03-23T06:55:53;97218.88;;;10.28;100.00
73429;BME280;61643;49.564;17.412;2024-03-23T06:58:24;97222.66;;;10.27;100.00
73429;BME280;61643;49.564;17.412;2024-03-23T07:00:50;97222.94;;;10.26;100.00
73429;BME280;61643;49.564;17.412;2024-03-23T07:03:16;97223.69;;;10.31;100.00
73429;BME280;61643;49.564;17.412;2024-03-23T07:05:43;97228.00;;;10.32;100.00
73429;BME280;61643;49.564;17.412;2024-03-23T07:08:09;97219.94;;;10.32;100.00
73429;BME280;61643;49.564;17.412;2024-03-23T07:10:37;97228.00;;;10.32;100.00
73429;BME280;61643;49.564;17.412;2024-03-23T07:13:04;97212.44;;;10.29;100.00
73429;BME280;61643;49.564;17.412;2024-03-23T07:15:30;97205.97;;;10.30;100.00
73429;BME280;61643;49.564;17.412;2024-03-23T07:17:56;97204.88;;;10.31;100.00
73429;BME280;61643;49.564;17.412;2024-03-23T07:20:22;97199.53;;;10.26;100.00
73429;BME280;61643;49.564;17.412;2024-03-23T07:22:48;97208.84;;;10.44;100.00
73429;BME280;61643;49.564;17.412;2024-03-23T07:25:14;97202.81;;;10.57;100.00
73429;BME280;61643;49.564;17.412;2024-03-23T07:27:40;97202.19;;;10.70;100.00
73429;BME280;61643;49.564;17.412;2024-03-23T07:30:07;97217.47;;;10.75;100.00
73429;BME280;61643;49.564;17.412;2024-03-23T07:32:35;97206.44;;;10.71;100.00
73429;BME280;61643;49.564;17.412;2024-03-23T07:35:01;97206.06;;;10.88;100.00
73429;BME280;61643;49.564;17.412;2024-03-23T07:37:28;97205.81;;;11.13;100.00
73429;BME280;61643;49.564;17.412;2024-03-23T07:39:54;97198.91;;;11.31;100.00
73429;BME280;61643;49.564;17.412;2024-03-23T07:42:20;97195.47;;;11.49;100.00
73429;BME280;61643;49.564;17.412;2024-03-23T07:44:46;97188.56;;;11.62;100.00
73429;BME280;61643;49.564;17.412;2024-03-23T07:47:12;97176.66;;;11.68;100.00
73429;BME280;61643;49.564;17.412;2024-03-23T07:49:38;97178.59;;;11.86;100.00
73429;BME280;61643;49.564;17.412;2024-03-23T07:52:06;97176.47;;;12.02;100.00
73429;BME280;61643;49.564;17.412;2024-03-23T07:54:32;97164.81;;;12.06;100.00
73429;BME280;61643;49.564;17.412;2024-03-23T07:56:58;97163.88;;;12.16;100.00
73429;BME280;61643;49.564;17.412;2024-03-23T07:59:24;97154.63;;;12.22;100.00
73429;BME280;61643;49.564;17.412;2024-03-23T08:01:51;97147.03;;;12.24;100.00
73429;BME280;61643;49.564;17.412;2024-03-23T08:04:17;97143.84;;;12.22;100.00
73429;BME280;61643;49.564;17.412;2024-03-23T08:06:43;97151.63;;;12.23;100.00
73429;BME280;61643;49.564;17.412;2024-03-23T08:09:09;97150.09;;;12.17;100.00
73429;BME280;61643;49.564;17.412;2024-03-23T08:11:34;97132.41;;;12.11;100.00
73429;BME280;61643;49.564;17.412;2024-03-23T08:14:00;97128.47;;;12.04;100.00
73429;BME280;61643;49.564;17.412;2024-03-23T08:16:27;97122.47;;;12.07;100.00
73429;BME280;61643;49.564;17.412;2024-03-23T08:18:54;97108.91;;;12.12;100.00
73429;BME280;61643;49.564;17.412;2024-03-23T08:21:21;97083.97;;;12.20;100.00
73429;BME280;61643;49.564;17.412;2024-03-23T08:23:47;97092.91;;;12.34;100.00
73429;BME280;61643;49.564;17.412;2024-03-23T08:26:16;97076.88;;;12.56;100.00
73429;BME280;61643;49.564;17.412;2024-03-23T08:28:43;97064.13;;;12.75;100.00
73429;BME280;61643;49.564;17.412;2024-03-23T08:31:11;97062.03;;;12.86;100.00
73429;BME280;61643;49.564;17.412;2024-03-23T08:33:37;97057.03;;;12.93;98.23
73429;BME280;61643;49.564;17.412;2024-03-23T08:36:06;97045.00;;;12.99;98.07
73429;BME280;61643;49.564;17.412;2024-03-23T08:38:32;97036.53;;;13.06;97.78
73429;BME280;61643;49.564;17.412;2024-03-23T08:41:03;97042.94;;;13.10;97.53
73429;BME280;61643;49.564;17.412;2024-03-23T08:43:31;97035.94;;;13.09;98.62
73429;BME280;61643;49.564;17.412;2024-03-23T08:46:10;97023.59;;;13.03;97.92
73429;BME280;61643;49.564;17.412;2024-03-23T08:48:39;97009.53;;;13.06;96.82
73429;BME280;61643;49.564;17.412;2024-03-23T08:51:07;96992.00;;;13.03;95.81
73429;BME280;61643;49.564;17.412;2024-03-23T08:53:35;96996.31;;;13.04;96.47
73429;BME280;61643;49.564;17.412;2024-03-23T08:56:02;96993.41;;;13.01;95.42
73429;BME280;61643;49.564;17.412;2024-03-23T08:58:29;96987.09;;;13.05;94.40
73429;BME280;61643;49.564;17.412;2024-03-23T09:01:02;96988.63;;;13.11;97.86
73429;BME280;61643;49.564;17.412;2024-03-23T09:03:29;96991.91;;;13.22;94.32
73429;BME280;61643;49.564;17.412;2024-03-23T09:05:55;96999.59;;;13.28;96.96
73429;BME280;61643;49.564;17.412;2024-03-23T09:08:21;96992.72;;;13.22;96.56
73429;BME280;61643;49.564;17.412;2024-03-23T09:10:47;96993.56;;;13.31;95.65
73429;BME280;61643;49.564;17.412;2024-03-23T09:13:14;96998.59;;;13.38;95.84
73429;BME280;61643;49.564;17.412;2024-03-23T09:15:48;96989.56;;;13.43;97.31
73429;BME280;61643;49.564;17.412;2024-03-23T09:18:14;96988.03;;;13.50;96.34
73429;BME280;61643;49.564;17.412;2024-03-23T09:20:40;96984.72;;;13.53;95.58
73429;BME280;61643;49.564;17.412;2024-03-23T09:23:06;96974.59;;;13.59;97.51
73429;BME280;61643;49.564;17.412;2024-03-23T09:25:36;96966.06;;;13.65;98.60
73429;BME280;61643;49.564;17.412;2024-03-23T09:28:02;96978.22;;;13.76;97.91
73429;BME280;61643;49.564;17.412;2024-03-23T09:30:28;96965.50;;;13.77;96.57
73429;BME280;61643;49.564;17.412;2024-03-23T09:32:54;96959.19;;;13.82;96.00
73429;BME280;61643;49.564;17.412;2024-03-23T09:35:20;96959.03;;;13.87;97.14
73429;BME280;61643;49.564;17.412;2024-03-23T09:37:46;96946.97;;;13.93;97.29
73429;BME280;61643;49.564;17.412;2024-03-23T09:40:12;96947.84;;;14.02;97.21
73429;BME280;61643;49.564;17.412;2024-03-23T09:42:38;96944.06;;;14.11;98.39
73429;BME280;61643;49.564;17.412;2024-03-23T09:45:16;96933.59;;;14.18;97.08
73429;BME280;61643;49.564;17.412;2024-03-23T09:47:43;96926.34;;;14.27;95.82
73429;BME280;61643;49.564;17.412;2024-03-23T09:50:10;96916.38;;;14.37;96.75
73429;BME280;61643;49.564;17.412;2024-03-23T09:52:36;96909.41;;;14.44;94.36
73429;BME280;61643;49.564;17.412;2024-03-23T09:55:03;96893.50;;;14.51;94.16
73429;BME280;61643;49.564;17.412;2024-03-23T09:57:29;96883.00;;;14.50;93.69
73429;BME280;61643;49.564;17.412;2024-03-23T09:59:55;96884.13;;;14.57;91.85
73429;BME280;61643;49.564;17.412;2024-03-23T10:02:24;96876.50;;;14.76;91.86
73429;BME280;61643;49.564;17.412;2024-03-23T10:04:50;96871.59;;;14.87;92.14
73429;BME280;61643;49.564;17.412;2024-03-23T10:07:18;96864.44;;;14.91;92.64
73429;BME280;61643;49.564;17.412;2024-03-23T10:09:45;96868.59;;;14.97;92.16
73429;BME280;61643;49.564;17.412;2024-03-23T10:12:18;96865.72;;;15.02;93.00
73429;BME280;61643;49.564;17.412;2024-03-23T10:14:44;96855.38;;;15.04;93.70
73429;BME280;61643;49.564;17.412;2024-03-23T10:17:16;96850.44;;;15.15;93.89
73429;BME280;61643;49.564;17.412;2024-03-23T10:19:49;96852.50;;;15.18;92.61
73429;BME280;61643;49.564;17.412;2024-03-23T10:22:20;96854.41;;;15.26;93.28
73429;BME280;61643;49.564;17.412;2024-03-23T10:24:46;96844.84;;;15.37;93.04
73429;BME280;61643;49.564;17.412;2024-03-23T10:27:17;96832.72;;;15.43;95.04
73429;BME280;61643;49.564;17.412;2024-03-23T10:29:45;96822.66;;;15.52;93.33
73429;BME280;61643;49.564;17.412;2024-03-23T10:32:12;96810.84;;;15.57;91.21
73429;BME280;61643;49.564;17.412;2024-03-23T10:34:39;96811.16;;;15.64;93.08
73429;BME280;61643;49.564;17.412;2024-03-23T10:37:06;96805.88;;;15.67;88.28
73429;BME280;61643;49.564;17.412;2024-03-23T10:39:36;96790.56;;;15.71;85.92
73429;BME280;61643;49.564;17.412;2024-03-23T10:42:12;96791.78;;;15.83;85.43
73429;BME280;61643;49.564;17.412;2024-03-23T10:44:39;96785.06;;;15.89;84.50
73429;BME280;61643;49.564;17.412;2024-03-23T10:47:05;96777.22;;;15.96;86.53
73429;BME280;61643;49.564;17.412;2024-03-23T10:49:35;96763.75;;;16.08;87.91
73429;BME280;61643;49.564;17.412;2024-03-23T10:52:03;96768.22;;;16.12;87.12
73429;BME280;61643;49.564;17.412;2024-03-23T10:54:31;96759.41;;;16.15;85.61
73429;BME280;61643;49.564;17.412;2024-03-23T10:57:07;96735.28;;;16.14;83.15
73429;BME280;61643;49.564;17.412;2024-03-23T10:59:37;96736.72;;;16.20;83.80
73429;BME280;61643;49.564;17.412;2024-03-23T11:02:03;96717.84;;;16.23;82.58
73429;BME280;61643;49.564;17.412;2024-03-23T11:04:30;96735.97;;;16.32;83.76
73429;BME280;61643;49.564;17.412;2024-03-23T11:06:57;96724.94;;;16.37;81.22
73429;BME280;61643;49.564;17.412;2024-03-23T11:09:42;96724.41;;;16.43;80.28
73429;BME280;61643;49.564;17.412;2024-03-23T11:17:28;96706.09;;;16.61;82.94
73429;BME280;61643;49.564;17.412;2024-03-23T11:20:01;96707.28;;;16.72;79.57
73429;BME280;61643;49.564;17.412;2024-03-23T11:25:22;96700.53;;;16.78;74.88
73429;BME280;61643;49.564;17.412;2024-03-23T11:27:51;96698.06;;;16.85;77.36
73429;BME280;61643;49.564;17.412;2024-03-23T11:32:51;96693.00;;;16.96;73.88
73429;BME280;61643;49.564;17.412;2024-03-23T11:35:29;96690.41;;;16.99;73.40
73429;BME280;61643;49.564;17.412;2024-03-23T11:38:16;96686.78;;;16.95;75.38
73429;BME280;61643;49.564;17.412;2024-03-23T11:40:45;96688.63;;;17.03;78.15
73429;BME280;61643;49.564;17.412;2024-03-23T11:43:19;96674.00;;;17.08;76.88
73429;BME280;61643;49.564;17.412;2024-03-23T11:45:46;96676.84;;;17.11;76.24
73429;BME280;61643;49.564;17.412;2024-03-23T11:50:42;96667.16;;;16.90;75.50
73429;BME280;61643;49.564;17.412;2024-03-23T11:55:51;96664.44;;;16.90;74.22
73429;BME280;61643;49.564;17.412;2024-03-23T11:58:19;96666.56;;;16.84;76.26
73429;BME280;61643;49.564;17.412;2024-03-23T12:01:00;96655.97;;;16.91;67.52
73429;BME280;61643;49.564;17.412;2024-03-23T12:03:30;96655.66;;;17.05;69.72
73429;BME280;61643;49.564;17.412;2024-03-23T12:05:59;96656.13;;;17.19;74.39
73429;BME280;61643;49.564;17.412;2024-03-23T12:08:32;96656.50;;;17.17;73.02
73429;BME280;61643;49.564;17.412;2024-03-23T12:11:27;96651.59;;;17.11;73.70
73429;BME280;61643;49.564;17.412;2024-03-23T12:13:59;96635.69;;;17.01;72.33
73429;BME280;61643;49.564;17.412;2024-03-23T12:16:25;96642.94;;;16.97;76.23
73429;BME280;61643;49.564;17.412;2024-03-23T12:18:53;96637.84;;;16.95;73.69
73429;BME280;61643;49.564;17.412;2024-03-23T12:21:30;96637.72;;;16.92;76.75
73429;BME280;61643;49.564;17.412;2024-03-23T12:23:56;96643.25;;;16.83;75.48
73429;BME280;61643;49.564;17.412;2024-03-23T12:26:22;96633.13;;;16.71;78.29
73429;BME280;61643;49.564;17.412;2024-03-23T12:28:49;96625.63;;;16.56;78.60
73429;BME280;61643;49.564;17.412;2024-03-23T12:31:15;96641.50;;;16.46;79.19
73429;BME280;61643;49.564;17.412;2024-03-23T12:33:41;96663.81;;;16.31;80.79
73429;BME280;61643;49.564;17.412;2024-03-23T12:36:07;96726.03;;;16.15;85.36
73429;BME280;61643;49.564;17.412;2024-03-23T12:38:33;96832.84;;;15.64;94.83
73429;BME280;61643;49.564;17.412;2024-03-23T12:40:59;96844.00;;;14.20;100.00
73429;BME280;61643;49.564;17.412;2024-03-23T12:43:26;96848.38;;;13.01;100.00
73429;BME280;61643;49.564;17.412;2024-03-23T12:45:52;96846.47;;;12.39;100.00
73429;BME280;61643;49.564;17.412;2024-03-23T12:48:18;96853.19;;;12.14;100.00
73429;BME280;61643;49.564;17.412;2024-03-23T12:50:44;96850.97;;;12.02;100.00
73429;BME280;61643;49.564;17.412;2024-03-23T12:53:10;96840.78;;;11.99;100.00
73429;BME280;61643;49.564;17.412;2024-03-23T12:55:36;96854.47;;;12.03;100.00
73429;BME280;61643;49.564;17.412;2024-03-23T12:58:02;96854.69;;;12.06;100.00
73429;BME280;61643;49.564;17.412;2024-03-23T13:00:28;96856.50;;;12.11;100.00
73429;BME280;61643;49.564;17.412;2024-03-23T13:02:55;96860.38;;;12.05;100.00
73429;BME280;61643;49.564;17.412;2024-03-23T13:05:20;96849.16;;;11.98;100.00
73429;BME280;61643;49.564;17.412;2024-03-23T13:07:46;96856.16;;;11.99;100.00
73429;BME280;61643;49.564;17.412;2024-03-23T13:10:12;96837.97;;;11.91;100.00
73429;BME280;61643;49.564;17.412;2024-03-23T13:12:40;96855.47;;;11.93;100.00
73429;BME280;61643;49.564;17.412;2024-03-23T13:15:06;96844.78;;;11.88;100.00
73429;BME280;61643;49.564;17.412;2024-03-23T13:17:32;96854.56;;;11.84;100.00
73429;BME280;61643;49.564;17.412;2024-03-23T13:19:58;96847.34;;;11.79;100.00
73429;BME280;61643;49.564;17.412;2024-03-23T13:22:24;96842.34;;;11.73;100.00
73429;BME280;61643;49.564;17.412;2024-03-23T13:24:50;96827.03;;;11.68;100.00
73429;BME280;61643;49.564;17.412;2024-03-23T13:27:16;96815.16;;;11.56;100.00
73429;BME280;61643;49.564;17.412;2024-03-23T13:29:42;96820.72;;;11.46;100.00
73429;BME280;61643;49.564;17.412;2024-03-23T13:32:08;96836.38;;;11.44;100.00
73429;BME280;61643;49.564;17.412;2024-03-23T13:34:34;96826.72;;;11.43;100.00
73429;BME280;61643;49.564;17.412;2024-03-23T13:37:01;96825.53;;;11.49;100.00
73429;BME280;61643;49.564;17.412;2024-03-23T13:39:27;96813.34;;;11.51;100.00
73429;BME280;61643;49.564;17.412;2024-03-23T13:41:53;96814.22;;;11.47;100.00
73429;BME280;61643;49.564;17.412;2024-03-23T13:44:20;96810.16;;;11.49;100.00
73429;BME280;61643;49.564;17.412;2024-03-23T13:46:46;96782.41;;;11.35;100.00
73429;BME280;61643;49.564;17.412;2024-03-23T13:49:25;96815.53;;;11.49;100.00
73429;BME280;61643;49.564;17.412;2024-03-23T13:51:51;96822.53;;;11.50;100.00
73429;BME280;61643;49.564;17.412;2024-03-23T13:54:17;96817.44;;;11.49;100.00